sensor_id;sensor_type;location;lat;lon;timestamp;temperature;humidity
67899;DHT22;54699;51.796;10.956;2024-02-14T00:02:23;17.70;51.30
67899;DHT22;54699;51.796;10.956;2024-02-14T00:04:51;17.70;51.30
67899;DHT22;54699;51.796;10.956;2024-02-14T00:07:18;17.70;51.30
67899;DHT22;54699;51.796;10.956;2024-02-14T00:09:45;17.70;51.30
67899;DHT22;54699;51.796;10.956;2024-02-14T00:12:12;17.70;52.20
67899;DHT22;54699;51.796;10.956;2024-02-14T00:14:42;17.70;51.30
67899;DHT22;54699;51.796;10.956;2024-02-14T00:17:10;17.70;51.30
67899;DHT22;54699;51.796;10.956;2024-02-14T00:19:37;17.70;51.30
67899;DHT22;54699;51.796;10.956;2024-02-14T00:22:05;17.70;51.20
67899;DHT22;54699;51.796;10.956;2024-02-14T00:24:32;17.70;51.30
67899;DHT22;54699;51.796;10.956;2024-02-14T00:27:01;17.70;51.20
67899;DHT22;54699;51.796;10.956;2024-02-14T00:29:28;17.70;51.30
67899;DHT22;54699;51.796;10.956;2024-02-14T00:31:55;17.70;51.30
67899;DHT22;54699;51.796;10.956;2024-02-14T00:34:23;17.70;51.30
67899;DHT22;54699;51.796;10.956;2024-02-14T00:36:50;17.70;51.30
67899;DHT22;54699;51.796;10.956;2024-02-14T00:39:17;17.70;51.30
67899;DHT22;54699;51.796;10.956;2024-02-14T00:41:46;17.70;51.30
67899;DHT22;54699;51.796;10.956;2024-02-14T00:44:13;17.70;51.40
67899;DHT22;54699;51.796;10.956;2024-02-14T00:46:42;17.70;51.40
67899;DHT22;54699;51.796;10.956;2024-02-14T00:49:12;17.70;51.40
67899;DHT22;54699;51.796;10.956;2024-02-14T00:51:40;17.70;51.40
67899;DHT22;54699;51.796;10.956;2024-02-14T00:54:07;17.70;51.40
67899;DHT22;54699;51.796;10.956;2024-02-14T00:56:34;17.70;51.30
67899;DHT22;54699;51.796;10.956;2024-02-14T00:59:01;17.70;51.40
67899;DHT22;54699;51.796;10.956;2024-02-14T01:01:28;17.70;51.30
67899;DHT22;54699;51.796;10.956;2024-02-14T01:03:55;17.70;51.30
67899;DHT22;54699;51.796;10.956;2024-02-14T01:06:22;17.70;51.30
67899;DHT22;54699;51.796;10.956;2024-02-14T01:08:51;17.70;51.30
67899;DHT22;54699;51.796;10.956;2024-02-14T01:11:18;17.70;51.30
67899;DHT22;54699;51.796;10.956;2024-02-14T01:13:45;17.70;51.30
67899;DHT22;54699;51.796;10.956;2024-02-14T01:16:12;17.70;51.40
67899;DHT22;54699;51.796;10.956;2024-02-14T01:18:39;17.70;51.40
67899;DHT22;54699;51.796;10.956;2024-02-14T01:21:06;17.70;51.40
67899;DHT22;54699;51.796;10.956;2024-02-14T01:23:33;17.60;51.30
67899;DHT22;54699;51.796;10.956;2024-02-14T01:26:02;17.60;51.40
67899;DHT22;54699;51.796;10.956;2024-02-14T01:28:29;17.70;51.40
67899;DHT22;54699;51.796;10.956;2024-02-14T01:30:56;17.60;51.40
67899;DHT22;54699;51.796;10.956;2024-02-14T01:33:23;17.60;51.50
67899;DHT22;54699;51.796;10.956;2024-02-14T01:35:50;17.60;51.40
67899;DHT22;54699;51.796;10.956;2024-02-14T01:38:17;17.70;51.40
67899;DHT22;54699;51.796;10.956;2024-02-14T01:40:44;17.60;51.40
67899;DHT22;54699;51.796;10.956;2024-02-14T01:43:13;17.60;51.50
67899;DHT22;54699;51.796;10.956;2024-02-14T01:45:40;17.60;51.40
67899;DHT22;54699;51.796;10.956;2024-02-14T01:48:07;17.60;51.40
67899;DHT22;54699;51.796;10.956;2024-02-14T01:50:36;17.60;51.40
67899;DHT22;54699;51.796;10.956;2024-02-14T01:53:04;17.60;51.40
67899;DHT22;54699;51.796;10.956;2024-02-14T01:55:31;17.60;51.40
67899;DHT22;54699;51.796;10.956;2024-02-14T01:58:00;17.60;51.50
67899;DHT22;54699;51.796;10.956;2024-02-14T02:00:30;17.60;51.50
67899;DHT22;54699;51.796;10.956;2024-02-14T02:02:57;17.60;51.50
67899;DHT22;54699;51.796;10.956;2024-02-14T02:05:25;17.60;51.50
67899;DHT22;54699;51.796;10.956;2024-02-14T02:07:52;17.60;51.50
67899;DHT22;54699;51.796;10.956;2024-02-14T02:10:19;17.60;51.50
67899;DHT22;54699;51.796;10.956;2024-02-14T02:12:47;17.60;51.50
67899;DHT22;54699;51.796;10.956;2024-02-14T02:15:16;17.60;51.60
67899;DHT22;54699;51.796;10.956;2024-02-14T02:17:44;17.60;51.50
67899;DHT22;54699;51.796;10.956;2024-02-14T02:20:17;17.60;51.50
67899;DHT22;54699;51.796;10.956;2024-02-14T02:22:48;17.60;51.50
67899;DHT22;54699;51.796;10.956;2024-02-14T02:25:15;17.60;51.50
67899;DHT22;54699;51.796;10.956;2024-02-14T02:27:43;17.60;51.60
67899;DHT22;54699;51.796;10.956;2024-02-14T02:30:09;17.60;51.50
67899;DHT22;54699;51.796;10.956;2024-02-14T02:32:39;17.60;51.50
67899;DHT22;54699;51.796;10.956;2024-02-14T02:35:06;17.60;51.50
67899;DHT22;54699;51.796;10.956;2024-02-14T02:37:35;17.60;51.60
67899;DHT22;54699;51.796;10.956;2024-02-14T02:40:03;17.60;51.60
67899;DHT22;54699;51.796;10.956;2024-02-14T02:42:32;17.60;51.60
67899;DHT22;54699;51.796;10.956;2024-02-14T02:44:59;17.60;51.50
67899;DHT22;54699;51.796;10.956;2024-02-14T02:47:27;17.60;51.50
67899;DHT22;54699;51.796;10.956;2024-02-14T02:49:55;17.50;51.50
67899;DHT22;54699;51.796;10.956;2024-02-14T02:52:22;17.60;51.50
67899;DHT22;54699;51.796;10.956;2024-02-14T02:54:49;17.50;51.40
67899;DHT22;54699;51.796;10.956;2024-02-14T02:57:19;17.50;51.50
67899;DHT22;54699;51.796;10.956;2024-02-14T02:59:46;17.50;51.50
67899;DHT22;54699;51.796;10.956;2024-02-14T03:02:13;17.50;51.60
67899;DHT22;54699;51.796;10.956;2024-02-14T03:04:40;17.50;51.50
67899;DHT22;54699;51.796;10.956;2024-02-14T03:07:08;17.50;51.50
67899;DHT22;54699;51.796;10.956;2024-02-14T03:09:35;17.50;51.50
67899;DHT22;54699;51.796;10.956;2024-02-14T03:12:02;17.50;51.50
67899;DHT22;54699;51.796;10.956;2024-02-14T03:14:30;17.60;51.60
67899;DHT22;54699;51.796;10.956;2024-02-14T03:16:58;17.50;51.50
67899;DHT22;54699;51.796;10.956;2024-02-14T03:19:26;17.50;51.50
67899;DHT22;54699;51.796;10.956;2024-02-14T03:21:54;17.50;51.50
67899;DHT22;54699;51.796;10.956;2024-02-14T03:24:21;17.50;51.50
67899;DHT22;54699;51.796;10.956;2024-02-14T03:26:50;17.50;51.50
67899;DHT22;54699;51.796;10.956;2024-02-14T03:29:19;17.50;51.50
67899;DHT22;54699;51.796;10.956;2024-02-14T03:31:51;17.50;51.50
67899;DHT22;54699;51.796;10.956;2024-02-14T03:34:19;17.50;51.60
67899;DHT22;54699;51.796;10.956;2024-02-14T03:36:46;17.50;51.50
67899;DHT22;54699;51.796;10.956;2024-02-14T03:39:13;17.50;51.50
67899;DHT22;54699;51.796;10.956;2024-02-14T03:41:42;17.50;51.50
67899;DHT22;54699;51.796;10.956;2024-02-14T03:44:09;17.50;51.40
67899;DHT22;54699;51.796;10.956;2024-02-14T03:46:36;17.50;51.40
67899;DHT22;54699;51.796;10.956;2024-02-14T03:49:04;17.50;51.40
67899;DHT22;54699;51.796;10.956;2024-02-14T03:51:31;17.60;51.50
67899;DHT22;54699;51.796;10.956;2024-02-14T03:53:59;17.50;51.50
67899;DHT22;54699;51.796;10.956;2024-02-14T03:56:25;17.50;51.50
67899;DHT22;54699;51.796;10.956;2024-02-14T03:58:52;17.50;51.50
67899;DHT22;54699;51.796;10.956;2024-02-14T04:01:19;17.50;51.40
67899;DHT22;54699;51.796;10.956;2024-02-14T04:03:46;17.50;51.40
67899;DHT22;54699;51.796;10.956;2024-02-14T04:06:15;17.50;51.60
67899;DHT22;54699;51.796;10.956;2024-02-14T04:08:43;17.50;51.50
67899;DHT22;54699;51.796;10.956;2024-02-14T04:11:10;17.50;51.40
67899;DHT22;54699;51.796;10.956;2024-02-14T04:13:38;17.50;51.40
67899;DHT22;54699;51.796;10.956;2024-02-14T04:16:05;17.50;51.50
67899;DHT22;54699;51.796;10.956;2024-02-14T04:18:32;17.50;51.50
67899;DHT22;54699;51.796;10.956;2024-02-14T04:20:59;17.50;51.50
67899;DHT22;54699;51.796;10.956;2024-02-14T04:23:28;17.50;51.40
67899;DHT22;54699;51.796;10.956;2024-02-14T04:25:55;17.50;51.50
67899;DHT22;54699;51.796;10.956;2024-02-14T04:28:23;17.50;51.40
67899;DHT22;54699;51.796;10.956;2024-02-14T04:30:52;17.50;51.50
67899;DHT22;54699;51.796;10.956;2024-02-14T04:33:20;17.50;51.50
67899;DHT22;54699;51.796;10.956;2024-02-14T04:35:48;17.50;51.50
67899;DHT22;54699;51.796;10.956;2024-02-14T04:38:15;17.50;51.40
67899;DHT22;54699;51.796;10.956;2024-02-14T04:40:45;17.50;51.50
67899;DHT22;54699;51.796;10.956;2024-02-14T04:43:12;17.50;51.50
67899;DHT22;54699;51.796;10.956;2024-02-14T04:45:39;17.50;51.40
67899;DHT22;54699;51.796;10.956;2024-02-14T04:48:06;17.50;51.50
67899;DHT22;54699;51.796;10.956;2024-02-14T04:50:34;17.50;51.60
67899;DHT22;54699;51.796;10.956;2024-02-14T04:53:00;17.50;51.50
67899;DHT22;54699;51.796;10.956;2024-02-14T04:55:27;17.50;51.50
67899;DHT22;54699;51.796;10.956;2024-02-14T04:57:56;17.50;51.50
67899;DHT22;54699;51.796;10.956;2024-02-14T05:00:23;17.50;51.60
67899;DHT22;54699;51.796;10.956;2024-02-14T05:02:50;17.50;51.60
67899;DHT22;54699;51.796;10.956;2024-02-14T05:05:17;17.50;51.50
67899;DHT22;54699;51.796;10.956;2024-02-14T05:07:45;17.50;51.50
67899;DHT22;54699;51.796;10.956;2024-02-14T05:10:12;17.50;51.50
67899;DHT22;54699;51.796;10.956;2024-02-14T05:12:39;17.50;51.60
67899;DHT22;54699;51.796;10.956;2024-02-14T05:15:08;17.50;51.60
67899;DHT22;54699;51.796;10.956;2024-02-14T05:17:37;17.40;51.50
67899;DHT22;54699;51.796;10.956;2024-02-14T05:20:05;17.40;51.50
67899;DHT22;54699;51.796;10.956;2024-02-14T05:22:35;17.50;51.60
67899;DHT22;54699;51.796;10.956;2024-02-14T05:25:03;17.40;51.40
67899;DHT22;54699;51.796;10.956;2024-02-14T05:27:30;17.50;51.50
67899;DHT22;54699;51.796;10.956;2024-02-14T05:29:57;17.50;51.50
67899;DHT22;54699;51.796;10.956;2024-02-14T05:32:25;17.50;51.50
67899;DHT22;54699;51.796;10.956;2024-02-14T05:34:52;17.40;51.50
67899;DHT22;54699;51.796;10.956;2024-02-14T05:37:19;17.50;51.40
67899;DHT22;54699;51.796;10.956;2024-02-14T05:39:46;17.60;52.40
67899;DHT22;54699;51.796;10.956;2024-02-14T05:42:13;17.80;51.40
67899;DHT22;54699;51.796;10.956;2024-02-14T05:44:41;18.10;50.90
67899;DHT22;54699;51.796;10.956;2024-02-14T05:47:08;18.40;50.10
67899;DHT22;54699;51.796;10.956;2024-02-14T05:49:39;18.90;49.40
67899;DHT22;54699;51.796;10.956;2024-02-14T05:52:06;18.90;48.50
67899;DHT22;54699;51.796;10.956;2024-02-14T05:54:34;19.30;48.00
67899;DHT22;54699;51.796;10.956;2024-02-14T05:57:10;19.60;46.60
67899;DHT22;54699;51.796;10.956;2024-02-14T05:59:37;19.80;45.80
67899;DHT22;54699;51.796;10.956;2024-02-14T06:02:07;19.90;45.30
67899;DHT22;54699;51.796;10.956;2024-02-14T06:04:35;20.10;45.00
67899;DHT22;54699;51.796;10.956;2024-02-14T06:07:04;20.30;44.30
67899;DHT22;54699;51.796;10.956;2024-02-14T06:09:32;20.40;43.70
67899;DHT22;54699;51.796;10.956;2024-02-14T06:11:59;20.50;43.70
67899;DHT22;54699;51.796;10.956;2024-02-14T06:14:26;20.70;42.40
67899;DHT22;54699;51.796;10.956;2024-02-14T06:16:54;20.70;43.00
67899;DHT22;54699;51.796;10.956;2024-02-14T06:19:22;20.80;44.30
67899;DHT22;54699;51.796;10.956;2024-02-14T06:21:49;20.80;43.10
67899;DHT22;54699;51.796;10.956;2024-02-14T06:24:18;21.00;42.70
67899;DHT22;54699;51.796;10.956;2024-02-14T06:26:45;21.20;42.30
67899;DHT22;54699;51.796;10.956;2024-02-14T06:29:12;21.40;41.80
67899;DHT22;54699;51.796;10.956;2024-02-14T06:31:39;21.40;41.60
67899;DHT22;54699;51.796;10.956;2024-02-14T06:34:07;21.60;41.60
67899;DHT22;54699;51.796;10.956;2024-02-14T06:36:36;21.60;41.30
67899;DHT22;54699;51.796;10.956;2024-02-14T06:39:03;21.60;41.20
67899;DHT22;54699;51.796;10.956;2024-02-14T06:41:34;21.60;41.30
67899;DHT22;54699;51.796;10.956;2024-02-14T06:44:01;21.70;41.20
67899;DHT22;54699;51.796;10.956;2024-02-14T06:46:31;21.70;41.00
67899;DHT22;54699;51.796;10.956;2024-02-14T06:49:01;21.70;41.10
67899;DHT22;54699;51.796;10.956;2024-02-14T06:51:28;21.70;40.60
67899;DHT22;54699;51.796;10.956;2024-02-14T06:53:59;21.70;40.30
67899;DHT22;54699;51.796;10.956;2024-02-14T06:56:26;21.70;39.50
67899;DHT22;54699;51.796;10.956;2024-02-14T06:58:57;21.80;39.60
67899;DHT22;54699;51.796;10.956;2024-02-14T07:01:25;21.80;40.00
67899;DHT22;54699;51.796;10.956;2024-02-14T07:03:52;21.60;39.70
67899;DHT22;54699;51.796;10.956;2024-02-14T07:06:19;21.70;40.40
67899;DHT22;54699;51.796;10.956;2024-02-14T07:08:47;21.70;40.70
67899;DHT22;54699;51.796;10.956;2024-02-14T07:11:15;21.80;40.70
67899;DHT22;54699;51.796;10.956;2024-02-14T07:13:45;21.70;40.50
67899;DHT22;54699;51.796;10.956;2024-02-14T07:16:18;21.70;40.30
67899;DHT22;54699;51.796;10.956;2024-02-14T07:18:46;21.70;40.40
67899;DHT22;54699;51.796;10.956;2024-02-14T07:21:13;21.90;40.20
67899;DHT22;54699;51.796;10.956;2024-02-14T07:23:40;21.90;40.20
67899;DHT22;54699;51.796;10.956;2024-02-14T07:26:07;21.90;40.00
67899;DHT22;54699;51.796;10.956;2024-02-14T07:28:34;22.00;39.80
67899;DHT22;54699;51.796;10.956;2024-02-14T07:31:01;22.00;40.00
67899;DHT22;54699;51.796;10.956;2024-02-14T07:33:33;22.00;40.00
67899;DHT22;54699;51.796;10.956;2024-02-14T07:36:00;22.10;39.80
67899;DHT22;54699;51.796;10.956;2024-02-14T07:38:28;22.00;39.80
67899;DHT22;54699;51.796;10.956;2024-02-14T07:40:55;22.10;39.80
67899;DHT22;54699;51.796;10.956;2024-02-14T07:43:21;22.00;40.00
67899;DHT22;54699;51.796;10.956;2024-02-14T07:45:50;21.90;40.00
67899;DHT22;54699;51.796;10.956;2024-02-14T07:48:17;21.90;40.00
67899;DHT22;54699;51.796;10.956;2024-02-14T07:50:46;21.90;40.10
67899;DHT22;54699;51.796;10.956;2024-02-14T07:53:18;21.90;40.10
67899;DHT22;54699;51.796;10.956;2024-02-14T07:55:48;21.90;40.00
67899;DHT22;54699;51.796;10.956;2024-02-14T07:58:16;22.00;40.00
67899;DHT22;54699;51.796;10.956;2024-02-14T08:00:45;21.90;40.10
67899;DHT22;54699;51.796;10.956;2024-02-14T08:03:15;22.00;40.10
67899;DHT22;54699;51.796;10.956;2024-02-14T08:05:42;21.90;40.90
67899;DHT22;54699;51.796;10.956;2024-02-14T08:08:13;22.00;40.00
67899;DHT22;54699;51.796;10.956;2024-02-14T08:10:40;22.10;40.00
67899;DHT22;54699;51.796;10.956;2024-02-14T08:13:07;22.10;40.20
67899;DHT22;54699;51.796;10.956;2024-02-14T08:15:35;22.00;40.30
67899;DHT22;54699;51.796;10.956;2024-02-14T08:18:02;22.00;40.30
67899;DHT22;54699;51.796;10.956;2024-02-14T08:20:29;22.00;40.50
67899;DHT22;54699;51.796;10.956;2024-02-14T08:22:57;22.10;40.40
67899;DHT22;54699;51.796;10.956;2024-02-14T08:25:25;22.10;40.00
67899;DHT22;54699;51.796;10.956;2024-02-14T08:27:56;22.10;39.60
67899;DHT22;54699;51.796;10.956;2024-02-14T08:30:23;22.10;40.30
67899;DHT22;54699;51.796;10.956;2024-02-14T08:32:51;22.20;40.30
67899;DHT22;54699;51.796;10.956;2024-02-14T08:35:21;22.20;40.20
67899;DHT22;54699;51.796;10.956;2024-02-14T08:37:48;22.20;40.30
67899;DHT22;54699;51.796;10.956;2024-02-14T08:40:26;22.40;40.70
67899;DHT22;54699;51.796;10.956;2024-02-14T08:42:53;22.40;40.50
67899;DHT22;54699;51.796;10.956;2024-02-14T08:45:27;22.30;40.70
67899;DHT22;54699;51.796;10.956;2024-02-14T08:47:55;22.20;41.90
67899;DHT22;54699;51.796;10.956;2024-02-14T08:50:26;22.40;41.10
67899;DHT22;54699;51.796;10.956;2024-02-14T08:53:03;22.40;41.90
67899;DHT22;54699;51.796;10.956;2024-02-14T08:55:39;22.30;41.80
67899;DHT22;54699;51.796;10.956;2024-02-14T08:58:09;22.30;41.90
67899;DHT22;54699;51.796;10.956;2024-02-14T09:00:37;22.40;42.40
67899;DHT22;54699;51.796;10.956;2024-02-14T09:03:06;22.30;42.30
67899;DHT22;54699;51.796;10.956;2024-02-14T09:05:34;22.50;41.40
67899;DHT22;54699;51.796;10.956;2024-02-14T09:08:02;22.40;40.60
67899;DHT22;54699;51.796;10.956;2024-02-14T09:10:31;22.50;40.20
67899;DHT22;54699;51.796;10.956;2024-02-14T09:13:00;22.50;40.30
67899;DHT22;54699;51.796;10.956;2024-02-14T09:15:28;22.60;40.80
67899;DHT22;54699;51.796;10.956;2024-02-14T09:17:59;22.50;41.00
67899;DHT22;54699;51.796;10.956;2024-02-14T09:20:26;22.40;41.10
67899;DHT22;54699;51.796;10.956;2024-02-14T09:22:54;22.50;41.00
67899;DHT22;54699;51.796;10.956;2024-02-14T09:25:21;22.50;40.90
67899;DHT22;54699;51.796;10.956;2024-02-14T09:27:48;22.40;41.00
67899;DHT22;54699;51.796;10.956;2024-02-14T09:30:17;22.20;41.00
67899;DHT22;54699;51.796;10.956;2024-02-14T09:32:44;22.30;41.20
67899;DHT22;54699;51.796;10.956;2024-02-14T09:35:15;22.40;41.20
67899;DHT22;54699;51.796;10.956;2024-02-14T09:37:43;22.30;40.90
67899;DHT22;54699;51.796;10.956;2024-02-14T09:40:10;22.30;40.50
67899;DHT22;54699;51.796;10.956;2024-02-14T09:42:42;22.40;40.60
67899;DHT22;54699;51.796;10.956;2024-02-14T09:45:11;22.40;41.00
67899;DHT22;54699;51.796;10.956;2024-02-14T09:47:40;22.30;41.00
67899;DHT22;54699;51.796;10.956;2024-02-14T09:50:07;22.30;41.10
67899;DHT22;54699;51.796;10.956;2024-02-14T09:52:36;22.50;41.00
67899;DHT22;54699;51.796;10.956;2024-02-14T09:55:06;22.30;40.70
67899;DHT22;54699;51.796;10.956;2024-02-14T09:57:36;22.30;40.90
67899;DHT22;54699;51.796;10.956;2024-02-14T10:00:09;22.40;41.00
67899;DHT22;54699;51.796;10.956;2024-02-14T10:02:36;22.40;41.00
67899;DHT22;54699;51.796;10.956;2024-02-14T10:05:05;22.30;41.00
67899;DHT22;54699;51.796;10.956;2024-02-14T10:07:40;22.30;41.10
67899;DHT22;54699;51.796;10.956;2024-02-14T10:10:07;22.30;41.10
67899;DHT22;54699;51.796;10.956;2024-02-14T10:12:35;22.30;41.20
67899;DHT22;54699;51.796;10.956;2024-02-14T10:15:04;22.50;41.00
67899;DHT22;54699;51.796;10.956;2024-02-14T10:17:34;22.50;40.80
67899;DHT22;54699;51.796;10.956;2024-02-14T10:20:08;22.40;41.00
67899;DHT22;54699;51.796;10.956;2024-02-14T10:22:36;22.40;41.40
67899;DHT22;54699;51.796;10.956;2024-02-14T10:25:08;22.30;41.10
67899;DHT22;54699;51.796;10.956;2024-02-14T10:27:36;22.30;41.20
67899;DHT22;54699;51.796;10.956;2024-02-14T10:30:04;22.40;41.60
67899;DHT22;54699;51.796;10.956;2024-02-14T10:32:37;22.40;41.40
67899;DHT22;54699;51.796;10.956;2024-02-14T10:35:08;22.40;41.00
67899;DHT22;54699;51.796;10.956;2024-02-14T10:37:50;22.50;40.70
67899;DHT22;54699;51.796;10.956;2024-02-14T10:40:36;22.80;40.70
67899;DHT22;54699;51.796;10.956;2024-02-14T10:43:07;22.60;41.30
67899;DHT22;54699;51.796;10.956;2024-02-14T10:45:35;22.70;41.80
67899;DHT22;54699;51.796;10.956;2024-02-14T10:48:04;22.70;41.50
67899;DHT22;54699;51.796;10.956;2024-02-14T10:50:40;22.80;42.60
67899;DHT22;54699;51.796;10.956;2024-02-14T10:53:11;22.80;42.40
67899;DHT22;54699;51.796;10.956;2024-02-14T10:55:41;22.90;42.00
67899;DHT22;54699;51.796;10.956;2024-02-14T10:58:24;23.00;42.30
67899;DHT22;54699;51.796;10.956;2024-02-14T11:00:53;23.10;42.30
67899;DHT22;54699;51.796;10.956;2024-02-14T11:03:21;23.30;42.10
67899;DHT22;54699;51.796;10.956;2024-02-14T11:05:54;23.30;42.40
67899;DHT22;54699;51.796;10.956;2024-02-14T11:08:29;23.30;42.10
67899;DHT22;54699;51.796;10.956;2024-02-14T11:10:58;23.10;41.30
67899;DHT22;54699;51.796;10.956;2024-02-14T11:13:28;23.10;41.80
67899;DHT22;54699;51.796;10.956;2024-02-14T11:15:57;23.10;41.30
67899;DHT22;54699;51.796;10.956;2024-02-14T11:18:27;22.90;41.50
67899;DHT22;54699;51.796;10.956;2024-02-14T11:21:15;23.10;41.60
67899;DHT22;54699;51.796;10.956;2024-02-14T11:23:52;22.90;41.60
67899;DHT22;54699;51.796;10.956;2024-02-14T11:26:20;23.20;41.40
67899;DHT22;54699;51.796;10.956;2024-02-14T11:28:58;23.20;40.70
67899;DHT22;54699;51.796;10.956;2024-02-14T11:31:31;23.20;40.80
67899;DHT22;54699;51.796;10.956;2024-02-14T11:34:02;23.20;41.10
67899;DHT22;54699;51.796;10.956;2024-02-14T11:36:34;23.30;41.00
67899;DHT22;54699;51.796;10.956;2024-02-14T11:39:02;23.30;40.80
67899;DHT22;54699;51.796;10.956;2024-02-14T11:41:32;23.20;40.20
67899;DHT22;54699;51.796;10.956;2024-02-14T11:44:03;23.30;40.40
67899;DHT22;54699;51.796;10.956;2024-02-14T11:46:34;23.30;40.50
67899;DHT22;54699;51.796;10.956;2024-02-14T11:49:03;23.20;40.20
67899;DHT22;54699;51.796;10.956;2024-02-14T11:51:33;23.30;40.10
67899;DHT22;54699;51.796;10.956;2024-02-14T11:54:01;23.30;39.70
67899;DHT22;54699;51.796;10.956;2024-02-14T11:56:30;23.30;39.70
67899;DHT22;54699;51.796;10.956;2024-02-14T11:59:06;23.30;39.50
67899;DHT22;54699;51.796;10.956;2024-02-14T12:01:35;23.30;39.90
67899;DHT22;54699;51.796;10.956;2024-02-14T12:04:04;23.30;39.80
67899;DHT22;54699;51.796;10.956;2024-02-14T12:06:33;23.40;40.40
67899;DHT22;54699;51.796;10.956;2024-02-14T12:09:06;23.30;40.40
67899;DHT22;54699;51.796;10.956;2024-02-14T12:11:35;23.30;39.90
67899;DHT22;54699;51.796;10.956;2024-02-14T12:14:03;23.40;40.30
67899;DHT22;54699;51.796;10.956;2024-02-14T12:16:30;23.40;40.00
67899;DHT22;54699;51.796;10.956;2024-02-14T12:19:03;23.50;40.40
67899;DHT22;54699;51.796;10.956;2024-02-14T12:21:35;23.60;40.20
67899;DHT22;54699;51.796;10.956;2024-02-14T12:24:04;23.50;40.30
67899;DHT22;54699;51.796;10.956;2024-02-14T12:26:32;23.60;40.30
67899;DHT22;54699;51.796;10.956;2024-02-14T12:29:03;23.60;40.50
67899;DHT22;54699;51.796;10.956;2024-02-14T12:31:31;23.70;39.80
67899;DHT22;54699;51.796;10.956;2024-02-14T12:33:58;23.60;40.40
67899;DHT22;54699;51.796;10.956;2024-02-14T12:36:27;23.50;40.00
67899;DHT22;54699;51.796;10.956;2024-02-14T12:38:57;23.50;40.40
67899;DHT22;54699;51.796;10.956;2024-02-14T12:41:28;23.60;39.90
67899;DHT22;54699;51.796;10.956;2024-02-14T12:43:56;23.60;40.20
67899;DHT22;54699;51.796;10.956;2024-02-14T12:46:23;23.60;40.40
67899;DHT22;54699;51.796;10.956;2024-02-14T12:48:51;23.60;40.30
67899;DHT22;54699;51.796;10.956;2024-02-14T12:51:17;23.60;40.60
67899;DHT22;54699;51.796;10.956;2024-02-14T12:53:44;23.70;39.80
67899;DHT22;54699;51.796;10.956;2024-02-14T12:56:13;23.60;40.30
67899;DHT22;54699;51.796;10.956;2024-02-14T12:58:41;23.60;40.00
67899;DHT22;54699;51.796;10.956;2024-02-14T13:01:09;23.60;39.70
67899;DHT22;54699;51.796;10.956;2024-02-14T13:03:40;23.40;39.80
67899;DHT22;54699;51.796;10.956;2024-02-14T13:06:10;23.60;39.80
67899;DHT22;54699;51.796;10.956;2024-02-14T13:08:37;23.60;40.10
67899;DHT22;54699;51.796;10.956;2024-02-14T13:11:05;23.70;39.90
67899;DHT22;54699;51.796;10.956;2024-02-14T13:13:35;23.70;39.70
67899;DHT22;54699;51.796;10.956;2024-02-14T13:16:05;23.80;39.70
67899;DHT22;54699;51.796;10.956;2024-02-14T13:18:33;23.80;39.90
67899;DHT22;54699;51.796;10.956;2024-02-14T13:21:00;23.80;39.70
67899;DHT22;54699;51.796;10.956;2024-02-14T13:23:28;23.80;39.80
67899;DHT22;54699;51.796;10.956;2024-02-14T13:25:55;23.90;39.50
67899;DHT22;54699;51.796;10.956;2024-02-14T13:28:22;23.80;39.30
67899;DHT22;54699;51.796;10.956;2024-02-14T13:30:50;23.80;39.70
67899;DHT22;54699;51.796;10.956;2024-02-14T13:33:18;23.60;39.70
67899;DHT22;54699;51.796;10.956;2024-02-14T13:35:45;23.80;39.70
67899;DHT22;54699;51.796;10.956;2024-02-14T13:38:11;23.80;39.50
67899;DHT22;54699;51.796;10.956;2024-02-14T13:40:38;23.80;39.40
67899;DHT22;54699;51.796;10.956;2024-02-14T13:43:05;23.80;40.30
67899;DHT22;54699;51.796;10.956;2024-02-14T13:45:39;23.80;39.20
67899;DHT22;54699;51.796;10.956;2024-02-14T13:48:10;23.80;39.20
67899;DHT22;54699;51.796;10.956;2024-02-14T13:50:37;23.40;39.90
67899;DHT22;54699;51.796;10.956;2024-02-14T13:53:05;23.50;39.90
67899;DHT22;54699;51.796;10.956;2024-02-14T13:55:32;23.50;39.90
67899;DHT22;54699;51.796;10.956;2024-02-14T13:57:59;23.30;40.00
67899;DHT22;54699;51.796;10.956;2024-02-14T14:00:27;23.40;40.40
67899;DHT22;54699;51.796;10.956;2024-02-14T14:02:54;23.50;40.20
67899;DHT22;54699;51.796;10.956;2024-02-14T14:05:23;23.50;40.10
67899;DHT22;54699;51.796;10.956;2024-02-14T14:07:50;23.40;40.40
67899;DHT22;54699;51.796;10.956;2024-02-14T14:10:17;23.50;40.80
67899;DHT22;54699;51.796;10.956;2024-02-14T14:12:44;23.40;40.90
67899;DHT22;54699;51.796;10.956;2024-02-14T14:15:11;23.40;41.60
67899;DHT22;54699;51.796;10.956;2024-02-14T14:17:38;23.50;40.90
67899;DHT22;54699;51.796;10.956;2024-02-14T14:20:05;23.50;40.50
67899;DHT22;54699;51.796;10.956;2024-02-14T14:22:34;23.60;41.00
67899;DHT22;54699;51.796;10.956;2024-02-14T14:25:03;23.50;40.60
67899;DHT22;54699;51.796;10.956;2024-02-14T14:27:31;23.50;41.00
67899;DHT22;54699;51.796;10.956;2024-02-14T14:29:58;23.50;42.50
67899;DHT22;54699;51.796;10.956;2024-02-14T14:32:25;23.60;41.50
67899;DHT22;54699;51.796;10.956;2024-02-14T14:34:52;23.50;41.10
67899;DHT22;54699;51.796;10.956;2024-02-14T14:37:19;23.40;40.90
67899;DHT22;54699;51.796;10.956;2024-02-14T14:39:51;23.40;40.80
67899;DHT22;54699;51.796;10.956;2024-02-14T14:42:19;23.30;41.00
67899;DHT22;54699;51.796;10.956;2024-02-14T14:44:46;23.40;40.70
67899;DHT22;54699;51.796;10.956;2024-02-14T14:47:13;23.50;40.50
67899;DHT22;54699;51.796;10.956;2024-02-14T14:49:40;23.60;40.50
67899;DHT22;54699;51.796;10.956;2024-02-14T14:52:07;23.60;40.20
67899;DHT22;54699;51.796;10.956;2024-02-14T14:54:37;23.50;40.60
67899;DHT22;54699;51.796;10.956;2024-02-14T14:57:05;23.50;40.50
67899;DHT22;54699;51.796;10.956;2024-02-14T14:59:39;23.50;40.60
67899;DHT22;54699;51.796;10.956;2024-02-14T15:02:06;23.20;41.10
67899;DHT22;54699;51.796;10.956;2024-02-14T15:04:35;23.10;41.00
67899;DHT22;54699;51.796;10.956;2024-02-14T15:07:05;23.00;41.40
67899;DHT22;54699;51.796;10.956;2024-02-14T15:09:32;22.90;41.80
67899;DHT22;54699;51.796;10.956;2024-02-14T15:11:59;22.70;41.80
67899;DHT22;54699;51.796;10.956;2024-02-14T15:14:27;22.40;48.50
67899;DHT22;54699;51.796;10.956;2024-02-14T15:16:54;22.10;51.20
67899;DHT22;54699;51.796;10.956;2024-02-14T15:19:21;21.70;52.30
67899;DHT22;54699;51.796;10.956;2024-02-14T15:21:49;21.40;52.80
67899;DHT22;54699;51.796;10.956;2024-02-14T15:24:16;21.10;55.10